createdAt,value
2019-02-05T00:01:34.074Z,21.29
2019-02-05T00:03:35.170Z,21.40
2019-02-05T00:05:36.788Z,21.31
2019-02-05T00:07:38.376Z,21.17
2019-02-05T00:09:40.030Z,21.25
2019-02-05T00:11:41.700Z,21.30
2019-02-05T00:13:43.317Z,21.35
2019-02-05T00:15:44.972Z,21.40
2019-02-05T00:17:46.588Z,21.41
2019-02-05T00:19:48.175Z,21.45
2019-02-05T00:21:49.815Z,21.47
2019-02-05T00:23:51.421Z,21.51
2019-02-05T00:25:53.025Z,21.55
2019-02-05T00:27:54.653Z,21.58
2019-02-05T00:29:56.279Z,21.62
2019-02-05T00:31:57.922Z,21.62
2019-02-05T00:33:59.521Z,21.67
2019-02-05T00:36:01.121Z,21.68
2019-02-05T00:38:02.803Z,21.72
2019-02-05T00:40:04.409Z,21.72
2019-02-05T00:42:06.053Z,21.71
2019-02-05T00:44:07.653Z,21.68
2019-02-05T00:46:09.254Z,21.67
2019-02-05T00:48:10.891Z,21.64
2019-02-05T00:50:12.495Z,21.63
2019-02-05T00:52:14.158Z,21.62
2019-02-05T00:54:15.762Z,21.58
2019-02-05T00:56:17.957Z,21.56
2019-02-05T00:58:19.041Z,21.52
2019-02-05T01:00:20.670Z,21.48
2019-02-05T01:02:22.370Z,21.46
2019-02-05T01:04:24.031Z,21.42
2019-02-05T01:06:25.640Z,21.40
2019-02-05T01:08:27.237Z,21.37
2019-02-05T01:10:28.892Z,21.35
2019-02-05T01:12:30.565Z,21.35
2019-02-05T01:14:32.179Z,21.34
2019-02-05T01:16:33.783Z,21.31
2019-02-05T01:18:35.385Z,21.31
2019-02-05T01:20:37.046Z,21.29
2019-02-05T01:22:38.672Z,21.28
2019-02-05T01:24:40.379Z,21.27
2019-02-05T01:26:41.952Z,21.31
2019-02-05T01:28:43.575Z,21.34
2019-02-05T01:30:45.236Z,21.33
2019-02-05T01:32:46.881Z,21.34
2019-02-05T01:34:48.495Z,21.35
2019-02-05T01:36:50.097Z,21.41
2019-02-05T01:38:51.793Z,21.52
2019-02-05T01:40:53.407Z,21.54
2019-02-05T01:42:55.017Z,21.59
2019-02-05T01:44:56.649Z,21.59
2019-02-05T01:46:58.307Z,21.62
2019-02-05T01:48:59.993Z,21.63
2019-02-05T01:51:01.558Z,21.63
2019-02-05T01:53:03.191Z,21.64
2019-02-05T01:55:04.801Z,21.64
2019-02-05T01:57:06.418Z,21.61
2019-02-05T01:59:08.050Z,21.60
2019-02-05T02:01:09.668Z,21.58
2019-02-05T02:03:11.376Z,21.56
2019-02-05T02:05:13.039Z,21.58
2019-02-05T02:07:14.690Z,21.54
2019-02-05T02:09:16.289Z,21.54
2019-02-05T02:11:17.890Z,21.53
2019-02-05T02:13:19.542Z,21.48
2019-02-05T02:15:21.135Z,21.46
2019-02-05T02:17:22.735Z,21.43
2019-02-05T02:19:24.375Z,21.42
2019-02-05T02:21:25.981Z,21.40
2019-02-05T02:23:27.708Z,21.38
2019-02-05T02:25:29.240Z,21.37
2019-02-05T02:27:30.842Z,21.36
2019-02-05T02:29:32.456Z,21.31
2019-02-05T02:31:34.058Z,21.32
2019-02-05T02:33:35.661Z,21.32
2019-02-05T02:35:37.273Z,21.28
2019-02-05T02:37:38.917Z,21.24
2019-02-05T02:39:40.574Z,21.22
2019-02-05T02:41:42.175Z,21.20
2019-02-05T02:43:43.781Z,21.25
2019-02-05T02:45:45.385Z,21.29
2019-02-05T02:47:47.039Z,21.32
2019-02-05T02:49:48.756Z,21.32
2019-02-05T02:51:50.348Z,21.42
2019-02-05T02:53:51.959Z,21.46
2019-02-05T02:55:53.582Z,21.52
2019-02-05T02:57:55.251Z,21.55
2019-02-05T02:59:56.854Z,21.58
2019-02-05T03:01:58.452Z,21.57
2019-02-05T03:04:00.048Z,21.56
2019-02-05T03:06:01.667Z,21.54
2019-02-05T03:08:03.275Z,21.46
2019-02-05T03:10:04.877Z,21.40
2019-02-05T03:12:06.500Z,21.33
2019-02-05T03:14:08.133Z,21.31
2019-02-05T03:16:09.757Z,21.32
2019-02-05T03:18:11.394Z,21.28
2019-02-05T03:20:13.016Z,21.22
2019-02-05T03:22:14.625Z,21.21
2019-02-05T03:24:16.287Z,21.19
2019-02-05T03:26:17.944Z,21.21
2019-02-05T03:28:19.556Z,21.25
2019-02-05T03:30:21.227Z,21.29
2019-02-05T03:32:22.842Z,21.44
2019-02-05T03:34:24.473Z,20.86
2019-02-05T03:36:26.122Z,20.48
2019-02-05T03:38:27.740Z,20.32
2019-02-05T03:40:29.380Z,20.24
2019-02-05T03:42:30.997Z,20.19
2019-02-05T03:44:32.614Z,20.24
2019-02-05T03:46:34.268Z,20.70
2019-02-05T03:48:35.901Z,20.90
2019-02-05T03:50:37.527Z,21.28
2019-02-05T03:52:39.177Z,21.29
2019-02-05T03:54:40.821Z,21.39
2019-02-05T03:56:42.440Z,21.19
2019-02-05T03:58:44.065Z,21.02
2019-02-05T04:00:45.704Z,20.96
2019-02-05T04:02:47.406Z,21.16
2019-02-05T04:04:49.013Z,21.25
2019-02-05T04:06:50.670Z,21.27
2019-02-05T04:08:52.310Z,21.23
2019-02-05T04:10:53.925Z,21.20
2019-02-05T04:12:55.569Z,21.20
2019-02-05T04:14:57.181Z,21.18
2019-02-05T04:16:58.786Z,20.96
2019-02-05T04:19:00.470Z,21.16
2019-02-05T04:21:02.089Z,21.12
2019-02-05T04:23:03.715Z,21.09
2019-02-05T04:25:05.352Z,21.08
2019-02-05T04:27:07.002Z,21.04
2019-02-05T04:29:08.636Z,21.01
2019-02-05T04:31:10.289Z,20.96
2019-02-05T04:33:11.934Z,20.94
2019-02-05T04:35:13.537Z,20.93
2019-02-05T04:37:15.162Z,20.91
2019-02-05T04:39:16.794Z,20.88
2019-02-05T04:41:18.393Z,20.86
2019-02-05T04:43:19.988Z,20.86
2019-02-05T04:45:33.381Z,20.85
2019-02-05T04:47:23.236Z,20.84
2019-02-05T04:49:24.846Z,20.82
2019-02-05T04:51:26.503Z,20.80
2019-02-05T04:53:28.110Z,20.78
2019-02-05T04:55:29.728Z,20.77
2019-02-05T04:57:31.382Z,20.77
2019-02-05T04:59:32.980Z,20.74
2019-02-05T05:01:34.659Z,20.75
2019-02-05T05:03:36.289Z,20.74
2019-02-05T05:05:37.927Z,20.72
2019-02-05T05:07:39.530Z,20.66
2019-02-05T05:09:41.293Z,20.63
2019-02-05T05:11:43.017Z,20.58
2019-02-05T05:13:44.492Z,20.52
2019-02-05T05:15:46.099Z,20.46
2019-02-05T05:17:47.746Z,20.40
2019-02-05T05:19:49.368Z,20.35
2019-02-05T05:21:50.993Z,20.31
2019-02-05T05:23:52.625Z,20.30
2019-02-05T05:25:54.242Z,20.31
2019-02-05T05:27:55.861Z,20.30
2019-02-05T05:29:57.494Z,20.31
2019-02-05T05:31:59.115Z,20.33
2019-02-05T05:34:00.727Z,20.35
2019-02-05T05:36:02.343Z,20.39
2019-02-05T05:38:03.963Z,20.43
2019-02-05T05:40:05.583Z,20.45
2019-02-05T05:42:07.232Z,20.53
2019-02-05T05:44:09.588Z,20.58
2019-02-05T05:46:10.489Z,20.67
2019-02-05T05:48:12.113Z,20.72
2019-02-05T05:50:13.709Z,20.80
2019-02-05T05:52:15.344Z,20.86
2019-02-05T05:54:16.939Z,20.90
2019-02-05T05:56:18.558Z,20.95
2019-02-05T05:58:23.031Z,21.00
2019-02-05T06:00:21.833Z,21.00
2019-02-05T06:02:23.478Z,21.01
2019-02-05T06:04:25.093Z,21.02
2019-02-05T06:06:26.693Z,20.99
2019-02-05T06:08:28.337Z,20.96
2019-02-05T06:10:29.985Z,20.94
2019-02-05T06:12:31.581Z,20.91
2019-02-05T06:14:33.224Z,20.88
2019-02-05T06:16:34.839Z,20.84
2019-02-05T06:18:36.458Z,20.84
2019-02-05T06:20:38.063Z,20.83
2019-02-05T06:22:39.681Z,20.80
2019-02-05T06:24:41.367Z,20.79
2019-02-05T06:26:42.982Z,20.77
2019-02-05T06:28:44.589Z,20.74
2019-02-05T06:30:46.191Z,20.73
2019-02-05T06:32:47.895Z,20.71
2019-02-05T06:34:49.502Z,20.71
2019-02-05T06:36:51.106Z,20.71
2019-02-05T06:38:52.754Z,20.68
2019-02-05T06:40:54.420Z,20.67
2019-02-05T06:42:56.019Z,20.64
2019-02-05T06:44:57.625Z,20.66
2019-02-05T06:46:59.246Z,20.64
2019-02-05T06:49:01.081Z,20.42
2019-02-05T06:51:02.759Z,20.60
2019-02-05T06:53:04.385Z,20.61
2019-02-05T06:55:05.997Z,20.60
2019-02-05T06:57:07.655Z,20.59
2019-02-05T06:59:09.267Z,20.59
2019-02-05T07:01:10.876Z,20.60
2019-02-05T07:03:12.495Z,20.60
2019-02-05T07:05:14.353Z,20.59
2019-02-05T07:07:20.484Z,20.58
2019-02-05T07:09:22.433Z,20.56
2019-02-05T07:11:24.386Z,20.56
2019-02-05T07:13:26.041Z,20.54
2019-02-05T07:15:27.642Z,20.55
2019-02-05T07:17:29.245Z,20.54
2019-02-05T07:19:30.884Z,20.57
2019-02-05T07:21:32.540Z,20.59
2019-02-05T07:23:34.202Z,20.61
2019-02-05T07:25:35.952Z,20.64
2019-02-05T07:27:37.570Z,20.70
2019-02-05T07:29:39.173Z,20.73
2019-02-05T07:31:40.821Z,20.76
2019-02-05T07:33:42.450Z,20.78
2019-02-05T07:35:44.074Z,20.81
2019-02-05T07:37:45.742Z,20.83
2019-02-05T07:39:47.391Z,20.85
2019-02-05T07:41:49.019Z,20.84
2019-02-05T07:43:50.678Z,20.84
2019-02-05T07:45:52.292Z,20.81
2019-02-05T07:47:53.898Z,20.80
2019-02-05T07:49:55.553Z,20.80
2019-02-05T07:51:57.176Z,20.77
2019-02-05T07:53:58.854Z,20.75
2019-02-05T07:56:00.482Z,20.74
2019-02-05T07:58:02.090Z,20.72
2019-02-05T08:00:03.712Z,20.69
2019-02-05T08:02:05.344Z,20.70
2019-02-05T08:04:06.981Z,20.69
2019-02-05T08:06:08.612Z,20.68
2019-02-05T08:08:10.221Z,20.67
2019-02-05T08:10:11.841Z,20.65
2019-02-05T08:12:13.461Z,20.63
2019-02-05T08:14:15.073Z,20.63
2019-02-05T08:16:16.738Z,20.61
2019-02-05T08:18:18.392Z,20.62
2019-02-05T08:20:20.055Z,20.59
2019-02-05T08:22:21.728Z,20.60
2019-02-05T08:24:23.342Z,20.59
2019-02-05T08:26:24.990Z,20.59
2019-02-05T08:28:26.631Z,20.58
2019-02-05T08:30:28.250Z,20.58
2019-02-05T08:32:29.873Z,20.59
2019-02-05T08:34:31.520Z,20.57
2019-02-05T08:36:33.127Z,20.59
2019-02-05T08:38:34.763Z,20.58
2019-02-05T08:40:36.393Z,20.59
2019-02-05T08:42:38.049Z,20.60
2019-02-05T08:44:39.680Z,20.60
2019-02-05T08:46:41.329Z,20.63
2019-02-05T08:48:42.952Z,20.63
2019-02-05T08:50:44.658Z,20.66
2019-02-05T08:52:46.265Z,20.72
2019-02-05T08:54:47.869Z,20.76
2019-02-05T08:56:49.488Z,20.82
2019-02-05T08:58:51.172Z,20.90
2019-02-05T09:00:52.778Z,20.97
2019-02-05T09:02:54.400Z,21.03
2019-02-05T09:04:56.013Z,21.10
2019-02-05T09:06:57.666Z,21.15
2019-02-05T09:08:59.289Z,21.17
2019-02-05T09:11:01.026Z,21.17
2019-02-05T09:13:02.668Z,21.13
2019-02-05T09:15:04.325Z,21.09
2019-02-05T09:17:05.971Z,21.06
2019-02-05T09:19:07.575Z,21.04
2019-02-05T09:21:09.211Z,21.00
2019-02-05T09:23:13.987Z,20.96
2019-02-05T09:25:12.550Z,20.90
2019-02-05T09:27:14.166Z,20.88
2019-02-05T09:29:15.840Z,20.84
2019-02-05T09:31:17.625Z,20.81
2019-02-05T09:33:19.224Z,20.79
2019-02-05T09:35:20.852Z,20.76
2019-02-05T09:37:22.462Z,20.72
2019-02-05T09:39:24.113Z,20.71
2019-02-05T09:41:25.775Z,20.67
2019-02-05T09:43:27.405Z,20.65
2019-02-05T09:45:29.049Z,20.64
2019-02-05T09:47:30.705Z,20.68
2019-02-05T09:49:32.327Z,20.71
2019-02-05T09:51:33.990Z,20.75
2019-02-05T09:53:35.597Z,20.76
2019-02-05T09:55:37.305Z,20.78
2019-02-05T09:57:38.940Z,20.82
2019-02-05T09:59:45.299Z,20.83
2019-02-05T10:01:42.250Z,20.82
2019-02-05T10:03:43.908Z,20.82
2019-02-05T10:05:45.517Z,20.87
2019-02-05T10:07:47.135Z,20.86
2019-02-05T10:09:48.742Z,20.86
2019-02-05T10:11:50.346Z,20.83
2019-02-05T10:13:51.985Z,20.80
2019-02-05T10:15:53.624Z,20.76
2019-02-05T10:17:55.248Z,20.74
2019-02-05T10:19:56.915Z,20.73
2019-02-05T10:21:58.528Z,20.73
2019-02-05T10:24:00.133Z,20.76
2019-02-05T10:26:01.788Z,20.81
2019-02-05T10:28:03.409Z,20.91
2019-02-05T10:30:05.027Z,20.99
2019-02-05T10:32:06.772Z,21.00
2019-02-05T10:34:08.345Z,21.01
2019-02-05T10:36:09.954Z,21.01
2019-02-05T10:38:11.569Z,21.01
2019-02-05T10:40:13.213Z,21.01
2019-02-05T10:42:14.853Z,20.99
2019-02-05T10:44:16.511Z,21.00
2019-02-05T10:46:18.127Z,20.97
2019-02-05T10:48:19.763Z,20.96
2019-02-05T10:50:21.379Z,20.96
2019-02-05T10:52:22.994Z,20.91
2019-02-05T10:54:24.610Z,20.89
2019-02-05T10:56:26.217Z,20.85
2019-02-05T10:58:27.863Z,20.83
2019-02-05T11:00:29.467Z,20.80
2019-02-05T11:02:31.073Z,20.77
2019-02-05T11:04:32.689Z,20.77
2019-02-05T11:06:34.296Z,20.73
2019-02-05T11:08:35.920Z,20.71
2019-02-05T11:10:37.567Z,20.69
2019-02-05T11:12:39.186Z,20.67
2019-02-05T11:14:40.817Z,20.64
2019-02-05T11:16:42.421Z,20.63
2019-02-05T11:18:44.038Z,20.61
2019-02-05T11:20:45.640Z,20.61
2019-02-05T11:22:47.267Z,20.59
2019-02-05T11:24:48.992Z,20.52
2019-02-05T11:26:50.585Z,20.43
2019-02-05T11:28:52.175Z,20.76
2019-02-05T11:30:53.772Z,21.01
2019-02-05T11:32:55.383Z,21.00
2019-02-05T11:34:57.003Z,20.97
2019-02-05T11:36:58.664Z,21.30
2019-02-05T11:39:00.313Z,21.69
2019-02-05T11:41:01.924Z,22.19
2019-02-05T11:43:03.572Z,22.32
2019-02-05T11:45:05.198Z,22.56
2019-02-05T11:47:06.810Z,22.60
2019-02-05T11:49:08.456Z,22.92
2019-02-05T11:51:10.092Z,23.02
2019-02-05T11:53:11.754Z,22.65
2019-02-05T11:55:13.421Z,22.57
2019-02-05T11:57:15.083Z,22.88
2019-02-05T11:59:16.843Z,23.07
2019-02-05T12:01:18.596Z,23.07
2019-02-05T12:03:20.239Z,23.14
2019-02-05T12:05:21.872Z,22.88
2019-02-05T12:07:23.496Z,23.10
2019-02-05T12:09:25.124Z,23.27
2019-02-05T12:11:26.735Z,23.25
2019-02-05T12:13:28.367Z,23.22
2019-02-05T12:15:30.024Z,22.82
2019-02-05T12:17:31.641Z,22.60
2019-02-05T12:19:33.265Z,22.66
2019-02-05T12:21:34.935Z,22.85
2019-02-05T12:23:36.560Z,22.40
2019-02-05T12:25:38.194Z,22.08
2019-02-05T12:27:39.845Z,22.49
2019-02-05T12:29:41.449Z,22.40
2019-02-05T12:31:43.058Z,22.66
2019-02-05T12:33:44.748Z,22.69
2019-02-05T12:35:46.423Z,22.68
2019-02-05T12:37:48.171Z,22.67
2019-02-05T12:39:49.835Z,22.76
2019-02-05T12:41:51.460Z,22.84
2019-02-05T12:43:53.115Z,22.82
2019-02-05T12:45:54.742Z,22.82
2019-02-05T12:47:56.391Z,22.82
2019-02-05T12:49:57.984Z,22.60
2019-02-05T12:51:59.616Z,22.32
2019-02-05T12:54:01.239Z,22.25
2019-02-05T12:56:02.934Z,22.08
2019-02-05T12:58:04.531Z,22.14
2019-02-05T13:00:06.153Z,22.10
2019-02-05T13:02:07.753Z,22.08
2019-02-05T13:04:09.431Z,22.05
2019-02-05T13:06:11.059Z,22.04
2019-02-05T13:08:12.698Z,22.00
2019-02-05T13:10:14.284Z,21.98
2019-02-05T13:12:15.877Z,21.97
2019-02-05T13:14:18.172Z,21.97
2019-02-05T13:16:19.772Z,21.95
2019-02-05T13:18:21.398Z,21.94
2019-02-05T13:20:22.989Z,21.94
2019-02-05T13:22:24.886Z,21.92
2019-02-05T13:24:26.499Z,21.90
2019-02-05T13:26:28.105Z,21.92
2019-02-05T13:28:29.713Z,21.90
2019-02-05T13:30:31.409Z,21.91
2019-02-05T13:32:33.012Z,21.89
2019-02-05T13:34:34.631Z,21.90
2019-02-05T13:36:36.287Z,21.91
2019-02-05T13:38:37.894Z,21.90
2019-02-05T13:40:39.487Z,21.87
2019-02-05T13:42:41.120Z,21.85
2019-02-05T13:44:42.729Z,21.79
2019-02-05T13:46:44.362Z,21.74
2019-02-05T13:48:46.014Z,21.70
2019-02-05T13:50:47.623Z,21.65
2019-02-05T13:52:50.573Z,21.63
2019-02-05T13:54:52.221Z,21.63
2019-02-05T13:56:53.964Z,21.63
2019-02-05T13:58:55.760Z,21.65
2019-02-05T14:00:57.520Z,21.68
2019-02-05T14:02:59.169Z,21.73
2019-02-05T14:05:00.866Z,21.77
2019-02-05T14:07:02.498Z,21.80
2019-02-05T14:09:10.692Z,21.89
2019-02-05T14:11:05.782Z,21.94
2019-02-05T14:13:07.389Z,22.02
2019-02-05T14:15:08.991Z,22.10
2019-02-05T14:17:10.612Z,22.11
2019-02-05T14:19:12.326Z,22.13
2019-02-05T14:21:13.909Z,22.14
2019-02-05T14:23:15.532Z,22.14
2019-02-05T14:25:17.172Z,22.11
2019-02-05T14:27:18.809Z,22.14
2019-02-05T14:29:20.427Z,22.16
2019-02-05T14:31:31.143Z,22.17
2019-02-05T14:33:23.687Z,22.05
2019-02-05T14:35:25.303Z,22.15
2019-02-05T14:37:26.910Z,22.20
2019-02-05T14:39:28.575Z,22.17
2019-02-05T14:41:30.164Z,22.08
2019-02-05T14:43:31.779Z,22.00
2019-02-05T14:45:33.425Z,22.20
2019-02-05T14:47:35.073Z,22.40
2019-02-05T14:49:36.686Z,22.56
2019-02-05T14:51:38.312Z,22.66
2019-02-05T14:53:39.917Z,22.77
2019-02-05T14:55:41.539Z,22.81
2019-02-05T14:57:43.141Z,22.79
2019-02-05T14:59:44.775Z,22.82
2019-02-05T15:01:46.463Z,22.90
2019-02-05T15:03:48.065Z,23.47
2019-02-05T15:05:49.661Z,23.43
2019-02-05T15:07:51.301Z,23.49
2019-02-05T15:09:52.929Z,23.48
2019-02-05T15:11:54.552Z,23.60
2019-02-05T15:13:56.251Z,23.66
2019-02-05T15:15:58.596Z,23.36
2019-02-05T15:18:00.188Z,23.17
2019-02-05T15:20:01.788Z,22.97
2019-02-05T15:22:03.403Z,23.21
2019-02-05T15:24:05.079Z,23.30
2019-02-05T15:26:06.693Z,23.43
2019-02-05T15:28:08.309Z,23.02
2019-02-05T15:30:09.928Z,22.86
2019-02-05T15:32:11.543Z,23.32
2019-02-05T15:34:13.214Z,23.41
2019-02-05T15:36:16.181Z,23.16
2019-02-05T15:38:17.804Z,23.53
2019-02-05T15:40:19.445Z,23.81
2019-02-05T15:42:21.055Z,23.66
2019-02-05T15:44:22.833Z,23.77
2019-02-05T15:46:24.674Z,23.66
2019-02-05T15:48:26.351Z,23.25
2019-02-05T15:50:28.796Z,23.45
2019-02-05T15:52:30.531Z,23.34
2019-02-05T15:54:32.164Z,23.59
2019-02-05T15:56:33.806Z,23.33
2019-02-05T15:58:35.606Z,23.34
2019-02-05T16:00:37.277Z,23.61
2019-02-05T16:02:38.881Z,23.81
2019-02-05T16:04:40.507Z,23.86
2019-02-05T16:06:42.188Z,23.54
2019-02-05T16:08:44.040Z,23.36
2019-02-05T16:10:45.658Z,23.24
2019-02-05T16:12:47.310Z,23.12
2019-02-05T16:14:48.978Z,23.15
2019-02-05T16:16:50.586Z,23.02
2019-02-05T16:18:53.273Z,23.18
2019-02-05T16:20:53.917Z,23.20
2019-02-05T16:22:55.529Z,23.31
2019-02-05T16:24:57.158Z,22.71
2019-02-05T16:26:58.759Z,22.33
2019-02-05T16:29:00.351Z,22.17
2019-02-05T16:31:01.983Z,22.10
2019-02-05T16:33:03.591Z,22.08
2019-02-05T16:35:05.203Z,22.41
2019-02-05T16:37:06.847Z,22.89
2019-02-05T16:39:08.518Z,22.98
2019-02-05T16:41:10.116Z,23.05
2019-02-05T16:43:11.768Z,23.39
2019-02-05T16:45:13.373Z,23.58
2019-02-05T16:47:15.051Z,23.67
2019-02-05T16:49:16.645Z,23.74
2019-02-05T16:51:18.255Z,23.28
2019-02-05T16:53:19.891Z,22.97
2019-02-05T16:55:21.508Z,23.29
2019-02-05T16:57:23.175Z,23.38
2019-02-05T16:59:24.791Z,23.64
2019-02-05T17:01:26.408Z,23.36
2019-02-05T17:03:28.010Z,23.69
2019-02-05T17:05:29.615Z,23.42
2019-02-05T17:07:31.210Z,23.45
2019-02-05T17:09:32.824Z,23.08
2019-02-05T17:11:34.460Z,22.93
2019-02-05T17:13:36.050Z,23.45
2019-02-05T17:15:37.751Z,23.22
2019-02-05T17:17:39.374Z,23.26
2019-02-05T17:19:41.025Z,23.42
2019-02-05T17:21:42.643Z,23.15
2019-02-05T17:23:44.298Z,22.51
2019-02-05T17:25:45.930Z,22.35
2019-02-05T17:27:47.549Z,22.18
2019-02-05T17:29:50.181Z,22.23
2019-02-05T17:31:50.832Z,22.54
2019-02-05T17:33:52.471Z,22.72
2019-02-05T17:35:54.102Z,22.77
2019-02-05T17:37:55.776Z,22.88
2019-02-05T17:39:57.697Z,22.90
2019-02-05T17:41:59.336Z,22.96
2019-02-05T17:44:01.114Z,23.03
2019-02-05T17:46:05.680Z,23.00
2019-02-05T17:48:04.405Z,23.21
2019-02-05T17:50:06.085Z,22.73
2019-02-05T17:52:07.704Z,22.32
2019-02-05T17:54:09.305Z,21.46
2019-02-05T17:56:10.962Z,21.01
2019-02-05T17:58:12.567Z,20.98
2019-02-05T18:00:14.173Z,20.69
2019-02-05T18:02:15.786Z,20.69
2019-02-05T18:04:17.390Z,21.81
2019-02-05T18:06:19.042Z,22.28
2019-02-05T18:08:20.693Z,22.88
2019-02-05T18:10:22.386Z,22.83
2019-02-05T18:12:23.991Z,22.88
2019-02-05T18:14:25.661Z,22.76
2019-02-05T18:16:27.283Z,22.80
2019-02-05T18:18:28.911Z,22.95
2019-02-05T18:20:30.767Z,23.09
2019-02-05T18:22:32.413Z,23.21
2019-02-05T18:24:34.017Z,23.29
2019-02-05T18:26:35.659Z,23.16
2019-02-05T18:28:37.308Z,23.11
2019-02-05T18:30:38.942Z,23.25
2019-02-05T18:32:40.552Z,23.39
2019-02-05T18:34:42.153Z,23.44
2019-02-05T18:36:43.856Z,23.49
2019-02-05T18:38:45.452Z,23.51
2019-02-05T18:40:47.112Z,23.33
2019-02-05T18:42:48.732Z,23.49
2019-02-05T18:44:50.344Z,23.50
2019-02-05T18:46:51.992Z,23.51
2019-02-05T18:49:04.689Z,23.28
2019-02-05T18:50:56.402Z,23.51
2019-02-05T18:52:58.050Z,23.36
2019-02-05T18:54:59.649Z,23.05
2019-02-05T18:57:01.240Z,22.87
2019-02-05T18:59:02.892Z,22.75
2019-02-05T19:01:04.573Z,22.67
2019-02-05T19:03:14.963Z,22.54
2019-02-05T19:05:07.873Z,22.66
2019-02-05T19:07:09.470Z,22.89
2019-02-05T19:09:11.082Z,22.97
2019-02-05T19:11:12.842Z,23.14
2019-02-05T19:13:14.398Z,23.02
2019-02-05T19:15:16.050Z,22.91
2019-02-05T19:17:17.672Z,23.00
2019-02-05T19:19:19.275Z,23.01
2019-02-05T19:21:20.872Z,22.99
2019-02-05T19:23:22.583Z,22.98
2019-02-05T19:25:26.687Z,22.95
2019-02-05T19:27:28.306Z,22.90
2019-02-05T19:29:29.961Z,22.88
2019-02-05T19:31:31.617Z,22.85
2019-02-05T19:33:33.208Z,22.75
2019-02-05T19:35:34.828Z,22.73
2019-02-05T19:37:36.423Z,22.70
2019-02-05T19:39:38.027Z,22.69
2019-02-05T19:41:39.644Z,22.72
2019-02-05T19:43:41.300Z,22.77
2019-02-05T19:45:49.058Z,22.80
2019-02-05T19:47:51.585Z,22.79
2019-02-05T19:49:53.157Z,22.81
2019-02-05T19:51:54.790Z,22.83
2019-02-05T19:53:56.477Z,22.51
2019-02-05T19:55:58.124Z,22.24
2019-02-05T19:57:59.746Z,22.36
2019-02-05T20:00:01.833Z,22.65
2019-02-05T20:02:03.434Z,22.83
2019-02-05T20:04:05.053Z,22.91
2019-02-05T20:06:06.722Z,22.96
2019-02-05T20:08:08.348Z,22.93
2019-02-05T20:10:09.986Z,23.00
2019-02-05T20:12:11.590Z,22.99
2019-02-05T20:14:13.190Z,23.03
2019-02-05T20:16:14.823Z,23.06
2019-02-05T20:18:16.422Z,23.15
2019-02-05T20:20:18.924Z,23.20
2019-02-05T20:22:20.632Z,23.22
2019-02-05T20:24:22.239Z,23.16
2019-02-05T20:26:23.852Z,23.15
2019-02-05T20:28:25.515Z,23.10
2019-02-05T20:30:27.189Z,23.14
2019-02-05T20:32:28.798Z,23.08
2019-02-05T20:34:30.447Z,23.05
2019-02-05T20:36:32.055Z,23.09
2019-02-05T20:38:33.755Z,23.10
2019-02-05T20:40:35.388Z,23.12
2019-02-05T20:42:37.004Z,23.15
2019-02-05T20:44:38.657Z,23.16
2019-02-05T20:46:40.373Z,23.04
2019-02-05T20:48:42.000Z,23.01
2019-02-05T20:50:43.665Z,22.98
2019-02-05T20:52:45.253Z,22.96
2019-02-05T20:54:46.919Z,22.95
2019-02-05T20:56:48.518Z,22.87
2019-02-05T20:58:50.136Z,22.83
2019-02-05T21:00:51.745Z,22.78
2019-02-05T21:02:53.380Z,22.75
2019-02-05T21:04:55.039Z,22.76
2019-02-05T21:06:59.604Z,22.76
2019-02-05T21:08:58.339Z,22.76
2019-02-05T21:11:00.039Z,22.73
2019-02-05T21:13:01.631Z,22.73
2019-02-05T21:15:03.243Z,22.67
2019-02-05T21:17:04.865Z,22.63
2019-02-05T21:19:06.554Z,22.20
2019-02-05T21:21:08.183Z,21.91
2019-02-05T21:23:09.884Z,22.10
2019-02-05T21:25:11.495Z,22.07
2019-02-05T21:27:13.134Z,22.31
2019-02-05T21:29:14.790Z,22.34
2019-02-05T21:31:16.407Z,22.37
2019-02-05T21:33:19.020Z,22.35
2019-02-05T21:35:19.683Z,22.32
2019-02-05T21:37:21.295Z,22.47
2019-02-05T21:39:22.901Z,22.26
2019-02-05T21:41:24.516Z,22.01
2019-02-05T21:43:26.150Z,21.84
2019-02-05T21:45:27.764Z,21.78
2019-02-05T21:47:29.402Z,21.72
2019-02-05T21:49:31.733Z,21.70
2019-02-05T21:51:40.873Z,21.68
2019-02-05T21:53:35.062Z,21.65
2019-02-05T21:55:37.289Z,21.62
2019-02-05T21:57:38.912Z,21.60
2019-02-05T21:59:40.504Z,21.59
2019-02-05T22:01:42.113Z,21.57
2019-02-05T22:03:43.805Z,21.54
2019-02-05T22:05:45.466Z,21.52
2019-02-05T22:07:47.109Z,21.51
2019-02-05T22:09:48.805Z,21.49
2019-02-05T22:11:50.410Z,21.49
2019-02-05T22:13:52.043Z,21.49
2019-02-05T22:15:53.657Z,21.49
2019-02-05T22:17:55.292Z,21.53
2019-02-05T22:19:56.940Z,21.54
2019-02-05T22:21:58.584Z,21.54
2019-02-05T22:24:00.242Z,21.53
2019-02-05T22:26:01.862Z,21.44
2019-02-05T22:28:03.511Z,21.49
2019-02-05T22:30:05.322Z,21.50
2019-02-05T22:32:06.973Z,21.48
2019-02-05T22:34:08.600Z,21.47
2019-02-05T22:36:10.232Z,21.48
2019-02-05T22:38:11.866Z,21.46
2019-02-05T22:40:13.493Z,21.44
2019-02-05T22:42:15.102Z,21.46
2019-02-05T22:44:16.791Z,21.45
2019-02-05T22:46:18.447Z,21.43
2019-02-05T22:48:20.048Z,21.42
2019-02-05T22:50:21.662Z,21.42
2019-02-05T22:52:25.848Z,21.40
2019-02-05T22:54:24.967Z,21.39
2019-02-05T22:56:26.598Z,21.37
2019-02-05T22:58:28.260Z,21.36
2019-02-05T23:00:29.863Z,21.36
2019-02-05T23:02:31.501Z,21.33
2019-02-05T23:04:33.155Z,21.34
2019-02-05T23:06:34.749Z,21.33
2019-02-05T23:08:36.380Z,21.31
2019-02-05T23:10:37.982Z,21.29
2019-02-05T23:12:39.604Z,21.30
2019-02-05T23:14:41.221Z,21.45
2019-02-05T23:16:42.839Z,21.50
2019-02-05T23:18:44.478Z,21.53
2019-02-05T23:20:46.095Z,21.52
2019-02-05T23:22:47.702Z,21.50
2019-02-05T23:24:49.345Z,21.51
2019-02-05T23:26:50.945Z,21.50
2019-02-05T23:28:52.549Z,21.47
2019-02-05T23:30:54.215Z,21.46
2019-02-05T23:32:55.835Z,21.47
2019-02-05T23:35:02.351Z,21.49
2019-02-05T23:36:59.154Z,21.30
2019-02-05T23:39:00.767Z,21.11
2019-02-05T23:41:02.373Z,21.19
2019-02-05T23:43:04.059Z,21.24
2019-02-05T23:45:06.314Z,21.25
2019-02-05T23:47:07.936Z,21.23
2019-02-05T23:49:09.546Z,21.22
2019-02-05T23:51:11.163Z,21.20
2019-02-05T23:53:12.772Z,21.20
2019-02-05T23:55:14.418Z,21.19
2019-02-05T23:57:16.053Z,21.18
2019-02-05T23:59:17.693Z,21.17
